M I D A S
Marine Information and Data Acquisition System
Tripno 848 of the Zeeleeuw from 2005-02-18 08:11:09 to 2005-02-18 12:28:13
Back to CruiseResearch ActivitiesStationsMapUnderway DataData graphs

EquipmentUnitsComments
TimeDGPSUTC
LatitudeDGPSDM.mWGS84
LongitudeDGPSDM.mWGS84
SpeedMeteo Stationm/sRelative wind speed
DirectionMeteo StationdegRelative wind direction
TemperatureMeteo Stationdeg CelciusAir temperature
PressureMeteo StationPaAtmospheric pressure
HumidityMeteo Station%Relative humidity
Missing or incorrect values are displayed as -999
Metereological data collected by the RV Zeeleeuw from 2005-02-18 08:12:17 to 2005-02-18 12:34:27
                                                                                    Next 1000 lines
Time Latitude Longitude Speed Direction Temperature Pressure Humidity
2005-02-18 08:12:26 51°13.595 2°56.101 3 106 1.7 102220 99
2005-02-18 08:12:32 51°13.595 2°56.1 1.9 87 1.7 102220 99
2005-02-18 08:12:36 51°13.596 2°56.099 3.4 87 1.7 102220 99
2005-02-18 08:12:41 51°13.596 2°56.097 4.3 59 1.7 102220 99
2005-02-18 08:12:47 51°13.597 2°56.096 2.6 44 1.7 102220 99
2005-02-18 08:12:51 51°13.598 2°56.094 2.6 28 1.7 102220 99
2005-02-18 08:12:57 51°13.599 2°56.093 2.6 43 1.7 102220 99
2005-02-18 08:13:01 51°13.599 2°56.091 3.3 36 1.7 102220 99
2005-02-18 08:13:06 51°13.6 2°56.09 2.5 95 1.7 102220 99
2005-02-18 08:13:12 51°13.601 2°56.088 2.9 100 1.7 102220 99
2005-02-18 08:13:17 51°13.601 2°56.087 1.7 102 1.7 102220 99
2005-02-18 08:13:22 51°13.602 2°56.085 2.9 103 1.7 102220 99
2005-02-18 08:13:26 51°13.602 2°56.083 2.9 87 1.7 102220 99
2005-02-18 08:13:32 51°13.603 2°56.081 2.7 114 1.7 102220 99
2005-02-18 08:13:36 51°13.604 2°56.078 3.3 110 1.7 102220 99
2005-02-18 08:13:42 51°13.606 2°56.073 3.7 101 1.7 102220 99
2005-02-18 08:13:47 51°13.607 2°56.069 2.9 135 1.7 102220 99
2005-02-18 08:13:52 51°13.609 2°56.064 2.3 113 1.7 102220 99
2005-02-18 08:13:57 51°13.611 2°56.058 2.4 118 1.7 102220 99
2005-02-18 08:14:02 51°13.612 2°56.052 3.3 122 1.7 102220 99
2005-02-18 08:14:07 51°13.614 2°56.045 3.1 106 1.7 102220 99
2005-02-18 08:14:12 51°13.616 2°56.039 2.8 115 1.7 102220 99
2005-02-18 08:14:17 51°13.618 2°56.032 2.8 112 1.7 102230 99
2005-02-18 08:14:22 51°13.62 2°56.025 2.7 116 1.7 102230 99
2005-02-18 08:14:27 51°13.623 2°56.017 2.6 104 1.7 102220 99
2005-02-18 08:14:32 51°13.625 2°56.009 3.1 101 1.7 102220 99
2005-02-18 08:14:36 51°13.627 2°56.003 3 134 1.7 102220 99
2005-02-18 08:14:42 51°13.63 2°55.995 3.7 133 1.7 102220 99
2005-02-18 08:14:47 51°13.633 2°55.986 3.6 124 1.7 102220 99
2005-02-18 08:14:52 51°13.636 2°55.979 3.4 133 1.7 102220 99
2005-02-18 08:14:57 51°13.64 2°55.969 3.2 129 1.7 102220 99
2005-02-18 08:15:02 51°13.643 2°55.962 3.3 118 1.7 102220 99
2005-02-18 08:15:07 51°13.647 2°55.952 2.7 115 1.7 102220 99
2005-02-18 08:15:12 51°13.651 2°55.944 2.9 128 1.7 102220 99
2005-02-18 08:15:17 51°13.655 2°55.935 3 126 1.7 102220 99
2005-02-18 08:15:22 51°13.658 2°55.927 2.7 107 1.7 102220 99
2005-02-18 08:15:27 51°13.662 2°55.918 2.1 80 1.7 102220 99
2005-02-18 08:15:32 51°13.666 2°55.909 2.5 155 1.7 102220 99
2005-02-18 08:15:36 51°13.669 2°55.902 3 152 1.7 102220 99
2005-02-18 08:15:42 51°13.674 2°55.892 2.6 161 1.7 102220 99
2005-02-18 08:15:47 51°13.678 2°55.882 3.1 142 1.7 102220 99
2005-02-18 08:15:52 51°13.682 2°55.873 4.8 144 1.7 102220 99
2005-02-18 08:15:57 51°13.686 2°55.864 2.9 119 1.7 102220 99
2005-02-18 08:16:02 51°13.689 2°55.856 4 123 1.7 102220 99
2005-02-18 08:16:07 51°13.693 2°55.846 4.1 144 1.7 102220 99
2005-02-18 08:16:12 51°13.696 2°55.837 2.8 159 1.7 102220 99
2005-02-18 08:16:17 51°13.7 2°55.826 3.5 146 1.7 102220 99
2005-02-18 08:16:22 51°13.703 2°55.818 3.3 150 1.7 102220 99
2005-02-18 08:16:27 51°13.706 2°55.808 3.8 141 1.7 102220 99
2005-02-18 08:16:32 51°13.708 2°55.799 4.6 132 1.7 102220 99
2005-02-18 08:16:36 51°13.71 2°55.791 4.4 117 1.7 102220 99
2005-02-18 08:16:42 51°13.712 2°55.782 4.8 115 1.7 102220 99
2005-02-18 08:16:47 51°13.714 2°55.772 4.4 102 1.7 102220 100
2005-02-18 08:16:52 51°13.716 2°55.765 3.9 130 1.7 102220 100
2005-02-18 08:16:56 51°13.717 2°55.758 5.5 120 1.7 102220 100
2005-02-18 08:17:02 51°13.719 2°55.751 4.3 142 1.7 102220 100
2005-02-18 08:17:06 51°13.72 2°55.746 3.2 126 1.6 102220 100
2005-02-18 08:17:11 51°13.721 2°55.741 3.5 118 1.6 102220 100
2005-02-18 08:17:16 51°13.722 2°55.737 2.8 123 1.7 102220 100
2005-02-18 08:17:21 51°13.722 2°55.735 3.7 135 1.7 102220 100
2005-02-18 08:17:27 51°13.723 2°55.735 3.2 133 1.7 102220 100
2005-02-18 08:17:31 51°13.724 2°55.735 2.7 132 1.7 102220 100
2005-02-18 08:17:37 51°13.725 2°55.737 2.6 143 1.7 102220 100
2005-02-18 08:17:41 51°13.726 2°55.738 2.7 144 1.7 102220 100
2005-02-18 08:17:46 51°13.728 2°55.74 2.8 146 1.7 102220 100
2005-02-18 08:17:51 51°13.729 2°55.741 3.1 156 1.7 102220 100
2005-02-18 08:17:56 51°13.73 2°55.741 2.4 148 1.6 102220 100
2005-02-18 08:18:02 51°13.73 2°55.74 3.2 156 1.6 102220 100
2005-02-18 08:18:07 51°13.73 2°55.739 3.4 161 1.6 102220 100
2005-02-18 08:18:12 51°13.73 2°55.738 4.2 172 1.6 102220 100
2005-02-18 08:18:17 51°13.729 2°55.737 2.7 177 1.6 102220 100
2005-02-18 08:18:22 51°13.728 2°55.734 3.8 156 1.6 102220 100
2005-02-18 08:18:26 51°13.726 2°55.733 3.2 184 1.6 102220 100
2005-02-18 08:18:32 51°13.725 2°55.73 4.1 163 1.6 102220 100
2005-02-18 08:18:37 51°13.723 2°55.728 3.4 180 1.6 102220 100
2005-02-18 08:18:42 51°13.722 2°55.726 3.6 162 1.6 102220 100
2005-02-18 08:18:47 51°13.721 2°55.725 4 157 1.6 102220 100
2005-02-18 08:18:51 51°13.721 2°55.725 4 177 1.6 102220 100
2005-02-18 08:18:57 51°13.721 2°55.723 3.3 170 1.6 102220 100
2005-02-18 08:19:02 51°13.722 2°55.723 4.3 177 1.6 102220 100
2005-02-18 08:19:06 51°13.721 2°55.723 5.2 183 1.6 102220 100
2005-02-18 08:19:11 51°13.721 2°55.723 4.4 204 1.6 102220 100
2005-02-18 08:19:17 51°13.729 2°55.722 4.3 228 1.6 102220 100
2005-02-18 08:19:22 51°13.732 2°55.72 4.5 251 1.6 102220 100
2005-02-18 08:19:27 51°13.735 2°55.718 3.7 242 1.6 102220 100
2005-02-18 08:19:32 51°13.739 2°55.716 1.9 251 1.6 102220 100
2005-02-18 08:19:37 51°13.744 2°55.712 2 270 1.6 102220 100
2005-02-18 08:19:41 51°13.748 2°55.708 0.9 125 1.6 102220 100
2005-02-18 08:19:47 51°13.754 2°55.702 1.9 305 1.6 102220 100
2005-02-18 08:19:52 51°13.757 2°55.699 3.3 297 1.6 102220 100
2005-02-18 08:19:56 51°13.764 2°55.692 1.6 310 1.7 102220 100
2005-02-18 08:20:02 51°13.771 2°55.685 1.7 315 1.7 102220 100
2005-02-18 08:20:07 51°13.778 2°55.678 2.3 312 1.7 102220 100
2005-02-18 08:20:12 51°13.785 2°55.672 1.6 351 1.7 102220 100
2005-02-18 08:20:16 51°13.791 2°55.665 2.7 302 1.7 102220 100
2005-02-18 08:20:22 51°13.8 2°55.658 1.9 297 1.7 102220 100
2005-02-18 08:20:26 51°13.807 2°55.652 2.7 305 1.7 102220 100
2005-02-18 08:20:32 51°13.816 2°55.645 2.3 266 1.7 102220 100
2005-02-18 08:20:36 51°13.822 2°55.64 1.9 306 1.7 102220 100
2005-02-18 08:20:42 51°13.832 2°55.631 2.3 342 1.7 102220 100
2005-02-18 08:20:46 51°13.839 2°55.626 2.5 338 1.7 102220 100
2005-02-18 08:20:52 51°13.85 2°55.618 2.2 40 1.7 102220 100
2005-02-18 08:20:56 51°13.858 2°55.612 2 330 1.7 102220 100
2005-02-18 08:21:02 51°13.868 2°55.605 1.9 339 1.7 102220 100
2005-02-18 08:21:06 51°13.875 2°55.599 2.3 312 1.7 102220 100
2005-02-18 08:21:12 51°13.887 2°55.591 3 324 1.7 102220 100
2005-02-18 08:21:16 51°13.895 2°55.585 3 301 1.7 102220 100
2005-02-18 08:21:21 51°13.904 2°55.578 3.1 298 1.7 102220 100
2005-02-18 08:21:26 51°13.913 2°55.572 2.6 306 1.8 102220 100
2005-02-18 08:21:31 51°13.923 2°55.564 2.5 328 1.8 102220 100
2005-02-18 08:21:36 51°13.933 2°55.557 2.2 307 1.8 102220 100
2005-02-18 08:21:42 51°13.943 2°55.548 2 43 1.8 102220 100
2005-02-18 08:21:46 51°13.95 2°55.543 1.3 315 1.8 102230 100
2005-02-18 08:21:52 51°13.962 2°55.534 1.8 328 1.8 102230 100
2005-02-18 08:21:56 51°13.971 2°55.528 2.8 326 1.8 102220 100
2005-02-18 08:22:01 51°13.98 2°55.521 2.5 330 1.8 102220 100
2005-02-18 08:22:07 51°13.991 2°55.512 2.8 328 1.8 102220 100
2005-02-18 08:22:11 51°14 2°55.506 2.8 334 1.8 102220 100
2005-02-18 08:22:17 51°14.01 2°55.498 2.5 335 1.8 102220 100
2005-02-18 08:22:21 51°14.019 2°55.492 2.8 331 1.8 102220 100
2005-02-18 08:22:26 51°14.028 2°55.485 2.2 317 1.8 102220 100
2005-02-18 08:22:31 51°14.038 2°55.477 1.9 316 1.8 102220 100
2005-02-18 08:22:36 51°14.047 2°55.47 1.6 315 1.7 102220 100
2005-02-18 08:22:41 51°14.057 2°55.461 3.6 304 1.7 102220 100
2005-02-18 08:22:47 51°14.068 2°55.453 2.5 289 1.8 102220 100
2005-02-18 08:22:52 51°14.078 2°55.446 2 261 1.8 102220 100
2005-02-18 08:22:57 51°14.088 2°55.438 1.4 309 1.8 102220 100
2005-02-18 08:23:01 51°14.097 2°55.431 1.5 284 1.8 102220 100
2005-02-18 08:23:06 51°14.105 2°55.425 1.9 295 1.8 102230 100
2005-02-18 08:23:12 51°14.117 2°55.416 1.8 302 1.8 102230 100
2005-02-18 08:23:16 51°14.126 2°55.409 1.7 308 1.8 102220 100
2005-02-18 08:23:21 51°14.136 2°55.401 1.8 324 1.8 102220 100
2005-02-18 08:23:26 51°14.144 2°55.393 2.4 316 1.8 102220 100
2005-02-18 08:23:32 51°14.156 2°55.383 1.7 314 1.8 102220 100
2005-02-18 08:23:37 51°14.166 2°55.374 1.9 317 1.8 102230 100
2005-02-18 08:23:42 51°14.176 2°55.364 2.3 309 1.8 102230 100
2005-02-18 08:23:46 51°14.184 2°55.355 2.7 299 1.8 102220 100
2005-02-18 08:23:52 51°14.197 2°55.341 3.7 308 1.8 102220 100
2005-02-18 08:23:56 51°14.205 2°55.332 3 308 1.8 102220 100
2005-02-18 08:24:01 51°14.216 2°55.318 2.3 342 1.8 102220 100
2005-02-18 08:24:06 51°14.226 2°55.305 2.4 43 1.8 102220 100
2005-02-18 08:24:12 51°14.236 2°55.29 6 324 1.8 102220 100
2005-02-18 08:24:16 51°14.244 2°55.276 5.6 299 1.8 102220 100
2005-02-18 08:24:22 51°14.255 2°55.26 4.3 37 1.8 102220 100
2005-02-18 08:24:25 51°14.261 2°55.249 4.2 328 1.8 102220 100
2005-02-18 08:24:32 51°14.273 2°55.229 5.9 316 1.8 102220 100
2005-02-18 08:24:37 51°14.282 2°55.213 6.3 302 1.8 102220 100
2005-02-18 08:24:41 51°14.29 2°55.198 5.7 298 1.8 102220 100
2005-02-18 08:24:47 51°14.3 2°55.18 5.6 227 1.8 102220 100
2005-02-18 08:24:52 51°14.308 2°55.164 4.6 310 1.8 102220 100
2005-02-18 08:24:56 51°14.316 2°55.148 5.7 318 1.8 102220 100
2005-02-18 08:25:02 51°14.326 2°55.13 6 314 1.8 102220 100
2005-02-18 08:25:05 51°14.332 2°55.118 5.6 320 1.7 102220 100
2005-02-18 08:25:12 51°14.343 2°55.096 5.5 328 1.7 102220 100
2005-02-18 08:25:16 51°14.351 2°55.081 4.7 302 1.8 102220 100
2005-02-18 08:25:21 51°14.36 2°55.064 5.6 316 1.8 102220 100
2005-02-18 08:25:27 51°14.37 2°55.046 6.2 232 1.8 102210 100
2005-02-18 08:25:32 51°14.379 2°55.03 5.9 310 1.8 102210 100
2005-02-18 08:25:37 51°14.388 2°55.013 6.1 307 1.8 102210 100
2005-02-18 08:25:42 51°14.397 2°54.996 5 303 1.8 102210 100
2005-02-18 08:25:47 51°14.406 2°54.98 5.6 300 1.8 102200 100
2005-02-18 08:25:52 51°14.415 2°54.963 5.3 308 1.8 102200 100
2005-02-18 08:25:57 51°14.424 2°54.946 6.8 309 1.8 102210 100
2005-02-18 08:26:02 51°14.432 2°54.929 7 290 1.8 102210 100
2005-02-18 08:26:06 51°14.439 2°54.915 6.8 292 1.8 102210 100
2005-02-18 08:26:12 51°14.448 2°54.894 9.3 282 1.8 102210 100
2005-02-18 08:26:17 51°14.456 2°54.876 7.9 294 1.8 102210 100
2005-02-18 08:26:21 51°14.461 2°54.859 9.2 294 1.8 102210 100
2005-02-18 08:26:25 51°14.466 2°54.844 9.6 292 1.8 102210 100
2005-02-18 08:26:32 51°14.473 2°54.82 8.1 305 1.8 102210 100
2005-02-18 08:26:36 51°14.477 2°54.803 7.8 312 1.8 102220 100
2005-02-18 08:26:41 51°14.482 2°54.784 7.9 308 1.8 102220 100
2005-02-18 08:26:46 51°14.485 2°54.766 8.4 310 1.8 102210 100
2005-02-18 08:26:52 51°14.49 2°54.743 8.4 306 1.8 102210 100
2005-02-18 08:26:57 51°14.493 2°54.723 7.8 228 1.8 102210 100
2005-02-18 08:27:01 51°14.495 2°54.705 7.6 314 1.8 102210 100
2005-02-18 08:27:07 51°14.497 2°54.683 10.4 312 1.8 102210 100
2005-02-18 08:27:12 51°14.499 2°54.663 9.7 311 1.8 102210 100
2005-02-18 08:27:16 51°14.501 2°54.645 10.9 308 1.8 102210 100
2005-02-18 08:27:22 51°14.502 2°54.623 9.4 310 1.8 102210 100
2005-02-18 08:27:26 51°14.503 2°54.605 9.1 228 1.8 102200 100
2005-02-18 08:27:32 51°14.504 2°54.583 8.8 316 1.8 102200 100
2005-02-18 08:27:37 51°14.505 2°54.564 10.6 41 1.8 102200 100
2005-02-18 08:27:42 51°14.506 2°54.544 8.8 314 1.8 102200 100
2005-02-18 08:27:47 51°14.507 2°54.524 9 314 1.8 102200 100
2005-02-18 08:27:52 51°14.508 2°54.504 9.3 316 1.8 102200 100
2005-02-18 08:27:57 51°14.509 2°54.484 9 42 1.8 102200 100
2005-02-18 08:28:01 51°14.51 2°54.466 9 321 1.8 102200 100
2005-02-18 08:28:05 51°14.51 2°54.451 9.9 319 1.8 102200 100
2005-02-18 08:28:12 51°14.509 2°54.425 8.7 326 1.8 102200 100
2005-02-18 08:28:17 51°14.507 2°54.407 9.8 330 1.8 102200 100
2005-02-18 08:28:22 51°14.505 2°54.388 9.4 327 1.8 102200 100
2005-02-18 08:28:27 51°14.502 2°54.37 10 327 1.8 102190 100
2005-02-18 08:28:32 51°14.499 2°54.351 9.4 330 1.8 102190 100
2005-02-18 08:28:37 51°14.495 2°54.333 10.3 330 1.8 102190 100
2005-02-18 08:28:42 51°14.492 2°54.315 9.9 328 1.8 102190 100
2005-02-18 08:28:46 51°14.489 2°54.301 9.1 328 1.8 102180 100
2005-02-18 08:28:52 51°14.483 2°54.281 9.9 330 1.8 102180 100
2005-02-18 08:28:57 51°14.478 2°54.264 9.6 330 1.8 102180 100
2005-02-18 08:29:02 51°14.473 2°54.247 10.2 328 1.8 102180 100
2005-02-18 08:29:06 51°14.468 2°54.232 10.2 336 1.8 102180 100
2005-02-18 08:29:12 51°14.461 2°54.214 10.7 332 1.8 102180 100
2005-02-18 08:29:17 51°14.455 2°54.198 10.6 332 1.8 102180 100
2005-02-18 08:29:22 51°14.45 2°54.182 13 331 1.8 102180 100
2005-02-18 08:29:26 51°14.444 2°54.167 10 337 1.8 102180 100
2005-02-18 08:29:32 51°14.437 2°54.149 9.1 339 1.8 102180 100
2005-02-18 08:29:36 51°14.432 2°54.135 8.3 341 1.8 102170 100
2005-02-18 08:29:42 51°14.425 2°54.117 9.8 340 1.8 102170 100
2005-02-18 08:29:47 51°14.419 2°54.101 11.1 340 1.8 102180 100
2005-02-18 08:29:52 51°14.412 2°54.086 10.4 339 1.8 102180 100
2005-02-18 08:29:57 51°14.405 2°54.071 9.9 340 1.8 102170 100
2005-02-18 08:30:02 51°14.398 2°54.056 11 345 1.8 102170 100
2005-02-18 08:30:07 51°14.39 2°54.042 11.1 343 1.8 102170 100
2005-02-18 08:30:12 51°14.382 2°54.028 11.3 336 1.8 102170 100
2005-02-18 08:30:17 51°14.375 2°54.014 11.7 339 1.8 102170 100
2005-02-18 08:30:21 51°14.368 2°54.001 11 338 1.8 102170 100
2005-02-18 08:30:26 51°14.361 2°53.986 10.6 337 1.8 102170 100
2005-02-18 08:30:32 51°14.353 2°53.97 9.8 335 1.8 102170 100
2005-02-18 08:30:37 51°14.346 2°53.955 10.1 336 1.8 102170 100
2005-02-18 08:30:42 51°14.34 2°53.942 10.2 331 1.8 102170 100
2005-02-18 08:30:46 51°14.336 2°53.93 10.2 328 1.8 102180 100
2005-02-18 08:30:52 51°14.33 2°53.917 9.1 323 1.8 102180 100
2005-02-18 08:30:57 51°14.325 2°53.905 8.9 331 1.8 102170 100
2005-02-18 08:31:01 51°14.322 2°53.896 8.7 328 1.8 102170 100
2005-02-18 08:31:06 51°14.318 2°53.887 9.4 320 1.8 102180 100
2005-02-18 08:31:12 51°14.313 2°53.876 7.9 329 1.8 102180 100
2005-02-18 08:31:16 51°14.309 2°53.869 8.2 340 1.8 102190 100
2005-02-18 08:31:21 51°14.305 2°53.86 8.7 338 1.8 102190 100
2005-02-18 08:31:27 51°14.301 2°53.853 9 329 1.8 102190 100
2005-02-18 08:31:32 51°14.297 2°53.846 9 328 1.8 102190 100
2005-02-18 08:31:36 51°14.294 2°53.841 8.9 336 1.8 102180 100
2005-02-18 08:31:42 51°14.289 2°53.835 9.5 338 1.8 102180 100
2005-02-18 08:31:46 51°14.287 2°53.831 9.1 341 1.9 102180 100
2005-02-18 08:31:51 51°14.283 2°53.827 8.7 341 1.9 102180 100
2005-02-18 08:31:57 51°14.279 2°53.823 8 341 1.9 102180 100
2005-02-18 08:32:01 51°14.277 2°53.819 8.1 335 1.9 102180 100
2005-02-18 08:32:07 51°14.273 2°53.816 9 337 1.9 102180 100
2005-02-18 08:32:12 51°14.27 2°53.813 8.6 331 1.9 102180 100
2005-02-18 08:32:16 51°14.268 2°53.811 8.5 339 1.9 102180 100
2005-02-18 08:32:22 51°14.265 2°53.808 7.5 337 1.9 102180 100
2005-02-18 08:32:26 51°14.263 2°53.807 7.8 346 1.9 102180 100
2005-02-18 08:32:32 51°14.26 2°53.805 7.3 344 1.9 102180 100
2005-02-18 08:32:36 51°14.258 2°53.804 8.7 345 1.9 102180 100
2005-02-18 08:32:42 51°14.255 2°53.802 8.4 345 1.9 102180 100
2005-02-18 08:32:47 51°14.253 2°53.801 7.8 351 1.9 102180 100
2005-02-18 08:32:52 51°14.25 2°53.8 8.1 353 1.9 102180 100
2005-02-18 08:32:57 51°14.248 2°53.799 6.7 352 1.9 102180 100
2005-02-18 08:33:02 51°14.246 2°53.799 7.5 348 1.9 102180 100
2005-02-18 08:33:06 51°14.245 2°53.798 7.6 348 1.9 102180 100
2005-02-18 08:33:11 51°14.243 2°53.797 7.5 343 1.9 102180 100
2005-02-18 08:33:17 51°14.241 2°53.797 7.6 352 1.9 102180 100
2005-02-18 08:33:21 51°14.239 2°53.797 8.1 353 1.9 102180 100
2005-02-18 08:33:25 51°14.238 2°53.797 7.5 349 1.9 102180 100
2005-02-18 08:33:32 51°14.236 2°53.797 6.7 348 1.9 102180 100
2005-02-18 08:33:36 51°14.235 2°53.798 7.2 349 1.9 102180 100
2005-02-18 08:33:42 51°14.233 2°53.798 7 353 1.9 102180 100
2005-02-18 08:33:46 51°14.232 2°53.798 7.4 350 1.9 102180 100
2005-02-18 08:33:52 51°14.231 2°53.798 8 347 1.9 102180 100
2005-02-18 08:33:56 51°14.23 2°53.798 7.4 347 1.9 102180 100
2005-02-18 08:34:02 51°14.229 2°53.798 7.5 339 1.9 102180 100
2005-02-18 08:34:06 51°14.228 2°53.799 7.4 339 1.9 102180 100
2005-02-18 08:34:12 51°14.227 2°53.799 6.7 347 1.9 102180 100
2005-02-18 08:34:16 51°14.226 2°53.8 6.8 349 1.9 102180 100
2005-02-18 08:34:21 51°14.226 2°53.8 6.2 344 1.9 102180 100
2005-02-18 08:34:26 51°14.225 2°53.801 7.8 346 1.9 102180 100
2005-02-18 08:34:32 51°14.224 2°53.801 8.4 340 1.9 102180 100
2005-02-18 08:34:37 51°14.223 2°53.802 7.3 348 1.9 102190 100
2005-02-18 08:34:41 51°14.223 2°53.802 7.2 340 1.9 102190 100
2005-02-18 08:34:46 51°14.223 2°53.802 7.5 335 1.9 102190 100
2005-02-18 08:34:52 51°14.222 2°53.803 7.6 352 1.9 102190 100
2005-02-18 08:34:57 51°14.222 2°53.804 7.4 343 1.9 102180 100
2005-02-18 08:35:01 51°14.222 2°53.804 8.5 340 1.9 102180 100
2005-02-18 08:35:07 51°14.222 2°53.805 6.7 336 1.9 102180 100
2005-02-18 08:35:12 51°14.222 2°53.805 6.7 335 1.9 102180 100
2005-02-18 08:35:17 51°14.222 2°53.806 7.2 329 1.9 102180 100
2005-02-18 08:35:21 51°14.222 2°53.807 6.8 332 1.9 102180 100
2005-02-18 08:35:26 51°14.222 2°53.807 7 343 1.9 102180 100
2005-02-18 08:35:32 51°14.222 2°53.808 7.3 334 1.9 102180 100
2005-02-18 08:35:36 51°14.222 2°53.809 6.8 343 1.9 102180 100
2005-02-18 08:35:41 51°14.222 2°53.809 7.5 336 1.9 102180 100
2005-02-18 08:35:46 51°14.223 2°53.811 7.4 321 1.9 102180 100
2005-02-18 08:35:52 51°14.223 2°53.811 8.3 329 1.9 102180 100
2005-02-18 08:35:57 51°14.223 2°53.812 8 330 1.9 102180 100
2005-02-18 08:36:01 51°14.223 2°53.812 7.5 329 1.9 102180 100
2005-02-18 08:36:07 51°14.223 2°53.812 7.5 324 1.9 102180 100
2005-02-18 08:36:12 51°14.223 2°53.811 8 334 1.9 102180 100
2005-02-18 08:36:16 51°14.223 2°53.81 7.6 320 1.9 102170 100
2005-02-18 08:36:21 51°14.222 2°53.808 7.4 325 1.9 102170 100
2005-02-18 08:36:27 51°14.221 2°53.805 8.4 329 1.9 102180 100
2005-02-18 08:36:31 51°14.219 2°53.801 9.3 326 1.9 102180 100
2005-02-18 08:36:36 51°14.217 2°53.795 8.8 327 1.9 102180 100
2005-02-18 08:36:41 51°14.214 2°53.788 8.2 333 1.9 102180 100
2005-02-18 08:36:47 51°14.209 2°53.778 8.8 328 1.8 102170 100
2005-02-18 08:36:52 51°14.205 2°53.768 10.3 326 1.8 102170 100
2005-02-18 08:36:56 51°14.201 2°53.757 10.1 331 1.8 102160 100
2005-02-18 08:37:01 51°14.196 2°53.744 10 331 1.8 102160 100
2005-02-18 08:37:06 51°14.192 2°53.732 10.4 337 1.8 102160 100
2005-02-18 08:37:12 51°14.185 2°53.713 10.4 336 1.8 102160 100
2005-02-18 08:37:16 51°14.18 2°53.699 9.6 336 1.8 102160 100
2005-02-18 08:37:21 51°14.175 2°53.682 8.9 335 1.8 102160 100
2005-02-18 08:37:27 51°14.168 2°53.663 10.1 334 1.8 102160 100
2005-02-18 08:37:32 51°14.162 2°53.645 10.9 338 1.8 102160 100
2005-02-18 08:37:36 51°14.157 2°53.629 11.5 336 1.8 102160 100
2005-02-18 08:37:41 51°14.15 2°53.611 11 336 1.8 102160 100
2005-02-18 08:37:47 51°14.142 2°53.591 11.7 338 1.9 102160 100
2005-02-18 08:37:52 51°14.135 2°53.572 11.9 342 1.9 102160 100
2005-02-18 08:37:56 51°14.128 2°53.555 11.4 343 1.8 102150 100
2005-02-18 08:38:02 51°14.12 2°53.534 10.9 341 1.8 102150 100
2005-02-18 08:38:06 51°14.113 2°53.517 11.1 339 1.8 102150 100
2005-02-18 08:38:12 51°14.104 2°53.495 10.7 338 1.8 102150 100
2005-02-18 08:38:16 51°14.097 2°53.479 11.7 338 1.8 102150 100
2005-02-18 08:38:21 51°14.089 2°53.457 13.6 337 1.8 102150 100
2005-02-18 08:38:26 51°14.081 2°53.438 12.2 338 1.8 102160 100
2005-02-18 08:38:32 51°14.071 2°53.413 12 337 1.8 102160 100
2005-02-18 08:38:36 51°14.065 2°53.397 12.6 336 1.8 102150 100
2005-02-18 08:38:41 51°14.056 2°53.374 11.2 340 1.8 102150 100
2005-02-18 08:38:47 51°14.046 2°53.351 11.6 341 1.8 102150 100
2005-02-18 08:38:52 51°14.037 2°53.329 12.4 340 1.8 102150 100
2005-02-18 08:38:56 51°14.03 2°53.312 12.3 338 1.8 102150 100
2005-02-18 08:39:01 51°14.021 2°53.287 12.8 335 1.8 102150 100
2005-02-18 08:39:07 51°14.011 2°53.263 13.7 335 1.8 102140 100
2005-02-18 08:39:12 51°14.002 2°53.241 12.3 334 1.8 102140 100
2005-02-18 08:39:17 51°13.993 2°53.218 11.5 344 1.8 102150 100
2005-02-18 08:39:22 51°13.984 2°53.196 11 338 1.8 102150 100
2005-02-18 08:39:26 51°13.977 2°53.178 11.2 345 1.8 102140 100
2005-02-18 08:39:32 51°13.966 2°53.151 11.9 348 1.8 102140 100
2005-02-18 08:39:37 51°13.957 2°53.128 12.4 341 1.8 102140 100
2005-02-18 08:39:42 51°13.948 2°53.105 11.7 345 1.8 102140 100
2005-02-18 08:39:46 51°13.94 2°53.084 12.9 343 1.8 102150 100
2005-02-18 08:39:52 51°13.93 2°53.06 12.4 341 1.8 102150 100
2005-02-18 08:39:56 51°13.923 2°53.041 13.5 340 1.8 102140 100
2005-02-18 08:40:02 51°13.912 2°53.014 12.6 334 1.8 102140 100
2005-02-18 08:40:07 51°13.903 2°52.991 12.1 346 1.8 102140 100
2005-02-18 08:40:12 51°13.894 2°52.968 12.1 343 1.8 102140 100
2005-02-18 08:40:17 51°13.885 2°52.945 11.3 343 1.8 102140 100
2005-02-18 08:40:21 51°13.877 2°52.925 12.4 341 1.8 102140 100
2005-02-18 08:40:27 51°13.867 2°52.899 12.6 339 1.8 102140 100
2005-02-18 08:40:32 51°13.858 2°52.877 12.3 337 1.8 102140 100
2005-02-18 08:40:36 51°13.849 2°52.856 12.1 341 1.8 102150 100
2005-02-18 08:40:42 51°13.839 2°52.831 13.9 337 1.8 102150 100
2005-02-18 08:40:45 51°13.833 2°52.815 13.2 341 1.9 102150 100
2005-02-18 08:40:51 51°13.822 2°52.787 12.9 338 1.9 102150 100
2005-02-18 08:40:56 51°13.814 2°52.766 13.4 341 1.9 102140 100
2005-02-18 08:41:02 51°13.803 2°52.739 12.3 340 1.9 102140 100
2005-02-18 08:41:06 51°13.795 2°52.718 11.7 343 1.9 102140 100
2005-02-18 08:41:12 51°13.785 2°52.693 12.6 341 1.9 102140 100
2005-02-18 08:41:16 51°13.777 2°52.672 12.6 341 1.8 102140 100
2005-02-18 08:41:21 51°13.768 2°52.649 12.6 343 1.8 102140 100
2005-02-18 08:41:27 51°13.757 2°52.621 12.3 340 1.8 102150 100
2005-02-18 08:41:32 51°13.749 2°52.601 12.3 344 1.8 102150 100
2005-02-18 08:41:36 51°13.74 2°52.58 11.9 340 1.8 102140 100
2005-02-18 08:41:41 51°13.731 2°52.557 11.6 343 1.8 102140 100
2005-02-18 08:41:47 51°13.721 2°52.532 12.2 343 1.8 102140 100
2005-02-18 08:41:52 51°13.712 2°52.509 12.1 344 1.8 102140 100
2005-02-18 08:41:56 51°13.704 2°52.491 11.7 342 1.8 102150 100
2005-02-18 08:42:01 51°13.695 2°52.466 11.3 337 1.8 102150 100
2005-02-18 08:42:05 51°13.687 2°52.447 11.9 339 1.8 102150 100
2005-02-18 08:42:12 51°13.675 2°52.417 11 342 1.8 102150 100
2005-02-18 08:42:16 51°13.667 2°52.397 11.5 342 1.9 102140 100
2005-02-18 08:42:22 51°13.657 2°52.371 11.5 338 1.9 102140 100
2005-02-18 08:42:26 51°13.65 2°52.353 11.7 340 1.9 102140 100
2005-02-18 08:42:32 51°13.638 2°52.326 11.7 339 1.9 102140 100
2005-02-18 08:42:37 51°13.63 2°52.302 11.5 338 1.9 102150 100
2005-02-18 08:42:41 51°13.622 2°52.281 11.3 341 1.9 102150 100
2005-02-18 08:42:46 51°13.613 2°52.258 12.5 338 1.9 102140 100
2005-02-18 08:42:52 51°13.602 2°52.233 11.8 338 1.9 102140 100
2005-02-18 08:42:56 51°13.594 2°52.213 11.3 340 1.8 102140 100
2005-02-18 08:43:02 51°13.584 2°52.188 11.3 338 1.8 102140 100
2005-02-18 08:43:06 51°13.577 2°52.169 12.3 348 1.9 102140 100
2005-02-18 08:43:12 51°13.566 2°52.142 10.5 341 1.9 102140 100
2005-02-18 08:43:16 51°13.557 2°52.121 10.7 343 1.9 102140 100
2005-02-18 08:43:21 51°13.548 2°52.098 12 -999 1.9 102140 100
2005-02-18 08:43:27 51°13.538 2°52.073 11.6 341 1.9 102150 100
2005-02-18 08:43:32 51°13.529 2°52.05 11.5 344 1.9 102150 100
2005-02-18 08:43:36 51°13.52 2°52.029 12.6 342 1.9 102140 100
2005-02-18 08:43:42 51°13.51 2°52.004 13 343 1.9 102140 100
2005-02-18 08:43:45 51°13.504 2°51.988 12.5 341 1.9 102140 100
2005-02-18 08:43:52 51°13.492 2°51.957 12.8 340 1.9 102140 100
2005-02-18 08:43:57 51°13.483 2°51.934 11.3 338 1.9 102150 100
2005-02-18 08:44:01 51°13.475 2°51.913 10.4 340 1.9 102150 100
2005-02-18 08:44:07 51°13.465 2°51.888 11.2 342 1.9 102140 100
2005-02-18 08:44:12 51°13.456 2°51.864 12.8 338 1.9 102140 100
2005-02-18 08:44:17 51°13.447 2°51.841 11.8 339 1.9 102140 100
2005-02-18 08:44:21 51°13.439 2°51.821 12.3 342 1.9 102140 100
2005-02-18 08:44:27 51°13.429 2°51.795 12.4 336 1.9 102140 100
2005-02-18 08:44:32 51°13.42 2°51.772 11.1 340 1.9 102140 100
2005-02-18 08:44:36 51°13.412 2°51.751 11 340 1.9 102140 100
2005-02-18 08:44:41 51°13.402 2°51.728 12.7 339 1.9 102140 100
2005-02-18 08:44:47 51°13.393 2°51.702 11.4 339 1.9 102140 100
2005-02-18 08:44:52 51°13.384 2°51.679 11.9 344 1.9 102140 100
2005-02-18 08:44:56 51°13.376 2°51.66 11.8 346 1.9 102140 100
2005-02-18 08:45:02 51°13.366 2°51.633 12.8 344 1.9 102140 100
2005-02-18 08:45:07 51°13.356 2°51.609 12.1 345 1.9 102140 100
2005-02-18 08:45:12 51°13.347 2°51.586 12.8 341 1.9 102140 100
2005-02-18 08:45:16 51°13.339 2°51.565 12.3 337 1.9 102140 100
2005-02-18 08:45:22 51°13.33 2°51.54 11.9 340 1.9 102140 100
2005-02-18 08:45:26 51°13.323 2°51.521 12.2 334 1.9 102140 100
2005-02-18 08:45:31 51°13.314 2°51.494 11 336 1.9 102140 100
2005-02-18 08:45:36 51°13.306 2°51.473 11.7 336 1.9 102140 100
2005-02-18 08:45:42 51°13.296 2°51.444 11.3 332 1.9 102140 100
2005-02-18 08:45:46 51°13.289 2°51.426 11.7 337 1.9 102140 100
2005-02-18 08:45:52 51°13.279 2°51.397 12.7 339 1.9 102140 100
2005-02-18 08:45:56 51°13.271 2°51.376 12.8 340 1.9 102140 100
2005-02-18 08:46:01 51°13.263 2°51.352 12.2 337 1.9 102140 100
2005-02-18 08:46:06 51°13.254 2°51.328 12.1 341 1.9 102140 100
2005-02-18 08:46:12 51°13.245 2°51.302 10.9 337 1.9 102140 100
2005-02-18 08:46:17 51°13.236 2°51.279 11.5 337 1.9 102130 100
2005-02-18 08:46:22 51°13.228 2°51.254 12.1 340 1.9 102130 100
2005-02-18 08:46:27 51°13.219 2°51.23 11.4 342 1.9 102130 100
2005-02-18 08:46:32 51°13.21 2°51.207 12.7 339 1.9 102130 100
2005-02-18 08:46:37 51°13.202 2°51.183 11.5 338 1.9 102140 100
2005-02-18 08:46:41 51°13.194 2°51.162 12.6 335 1.9 102140 100
2005-02-18 08:46:46 51°13.186 2°51.141 12.1 337 1.9 102130 100
2005-02-18 08:46:52 51°13.176 2°51.112 11.2 334 1.9 102130 100
2005-02-18 08:46:57 51°13.167 2°51.089 13 337 1.9 102130 100
2005-02-18 08:47:01 51°13.159 2°51.067 12.8 338 1.9 102130 100
2005-02-18 08:47:07 51°13.15 2°51.041 12.9 336 1.9 102130 100
2005-02-18 08:47:12 51°13.142 2°51.017 12.7 342 1.9 102130 100
2005-02-18 08:47:16 51°13.134 2°50.996 12.6 335 1.9 102140 100
2005-02-18 08:47:21 51°13.126 2°50.972 12.5 336 1.9 102140 100
2005-02-18 08:47:26 51°13.118 2°50.95 13.1 336 1.9 102130 100
2005-02-18 08:47:32 51°13.108 2°50.922 11.8 332 1.9 102130 100
2005-02-18 08:47:36 51°13.1 2°50.9 12.5 339 1.9 102130 100
2005-02-18 08:47:42 51°13.091 2°50.874 12.4 338 1.9 102130 100
2005-02-18 08:47:46 51°13.084 2°50.855 12.2 339 1.9 102130 100
2005-02-18 08:47:52 51°13.074 2°50.827 12.9 340 1.9 102130 100
2005-02-18 08:47:56 51°13.067 2°50.808 13.4 339 1.9 102130 100
2005-02-18 08:48:02 51°13.057 2°50.779 12.3 335 1.9 102130 100
2005-02-18 08:48:06 51°13.05 2°50.76 12.5 332 1.9 102130 100
2005-02-18 08:48:12 51°13.04 2°50.732 11.6 337 1.9 102130 100
2005-02-18 08:48:16 51°13.032 2°50.711 13.1 334 1.9 102130 100
2005-02-18 08:48:22 51°13.023 2°50.684 13.5 331 1.9 102130 100
2005-02-18 08:48:27 51°13.014 2°50.661 11.8 335 1.9 102130 100
2005-02-18 08:48:32 51°13.006 2°50.637 12.6 337 1.9 102130 100
2005-02-18 08:48:37 51°12.998 2°50.612 13.2 338 1.9 102120 100
2005-02-18 08:48:41 51°12.99 2°50.591 13.1 335 1.9 102120 100
2005-02-18 08:48:46 51°12.983 2°50.57 12 337 1.9 102120 100
2005-02-18 08:48:51 51°12.973 2°50.544 12.6 334 1.9 102120 100
2005-02-18 08:48:56 51°12.965 2°50.52 13.3 336 1.9 102130 100
2005-02-18 08:49:02 51°12.955 2°50.494 12.3 336 1.9 102130 100
2005-02-18 08:49:07 51°12.947 2°50.471 13.1 334 1.9 102130 100
2005-02-18 08:49:11 51°12.939 2°50.45 13.1 333 1.9 102130 100
2005-02-18 08:49:17 51°12.929 2°50.423 12.5 332 1.9 102120 100
2005-02-18 08:49:21 51°12.922 2°50.402 13.1 332 1.9 102120 100
2005-02-18 08:49:25 51°12.915 2°50.383 12.9 334 1.9 102120 100
2005-02-18 08:49:32 51°12.904 2°50.352 12.6 335 1.9 102120 100
2005-02-18 08:49:36 51°12.897 2°50.331 12.2 338 1.9 102120 100
2005-02-18 08:49:42 51°12.887 2°50.305 13.3 336 1.9 102120 100
2005-02-18 08:49:47 51°12.879 2°50.281 13.3 340 1.9 102120 100
2005-02-18 08:49:51 51°12.871 2°50.26 14.4 337 1.9 102120 100
2005-02-18 08:49:57 51°12.862 2°50.234 13.7 331 1.9 102120 100
2005-02-18 08:50:01 51°12.854 2°50.213 13 335 1.9 102120 100
2005-02-18 08:50:07 51°12.845 2°50.186 13.1 340 1.9 102120 100
2005-02-18 08:50:12 51°12.837 2°50.163 12.6 338 1.9 102120 100
2005-02-18 08:50:16 51°12.83 2°50.144 12.6 337 1.9 102120 100
2005-02-18 08:50:21 51°12.821 2°50.118 12.9 336 1.9 102120 100
2005-02-18 08:50:27 51°12.811 2°50.092 12.9 337 1.9 102130 100
2005-02-18 08:50:32 51°12.803 2°50.068 12.9 340 1.9 102130 100
2005-02-18 08:50:36 51°12.795 2°50.047 12.8 337 1.9 102130 100
2005-02-18 08:50:41 51°12.787 2°50.023 12.2 341 1.9 102130 100
2005-02-18 08:50:46 51°12.778 2°49.999 12.4 339 1.9 102120 100
2005-02-18 08:50:52 51°12.769 2°49.974 13.1 338 1.9 102120 100
2005-02-18 08:50:57 51°12.76 2°49.95 13 341 2 102130 100
2005-02-18 08:51:01 51°12.753 2°49.928 12.4 338 2 102130 100
2005-02-18 08:51:06 51°12.745 2°49.907 12.2 335 2 102130 100
2005-02-18 08:51:12 51°12.735 2°49.878 12 336 2 102130 100
2005-02-18 08:51:16 51°12.729 2°49.859 13.1 340 2 102130 100
2005-02-18 08:51:22 51°12.718 2°49.831 13.8 342 2 102130 100
2005-02-18 08:51:27 51°12.71 2°49.807 13.2 337 2 102120 100
2005-02-18 08:51:31 51°12.702 2°49.785 12.3 337 2 102120 100
2005-02-18 08:51:36 51°12.694 2°49.762 12.7 341 2 102130 100
2005-02-18 08:51:41 51°12.685 2°49.738 13 337 2 102130 100
2005-02-18 08:51:46 51°12.677 2°49.714 12.5 336 2 102120 100
2005-02-18 08:51:51 51°12.668 2°49.691 12.9 341 2 102120 100
2005-02-18 08:51:56 51°12.66 2°49.669 13.6 333 2 102120 100
2005-02-18 08:52:02 51°12.65 2°49.641 12 339 2 102120 100
2005-02-18 08:52:07 51°12.642 2°49.617 12.6 339 2 102130 100
2005-02-18 08:52:12 51°12.633 2°49.593 12.5 337 2 102130 100
2005-02-18 08:52:16 51°12.626 2°49.572 12.3 340 2 102130 100
2005-02-18 08:52:22 51°12.616 2°49.546 13.1 337 2 102130 100
2005-02-18 08:52:27 51°12.608 2°49.522 12.6 334 2 102130 100
2005-02-18 08:52:32 51°12.599 2°49.498 11.6 342 2 102130 100
2005-02-18 08:52:37 51°12.591 2°49.475 11.8 340 2 102130 100
2005-02-18 08:52:42 51°12.582 2°49.451 11.1 342 2 102130 100
2005-02-18 08:52:47 51°12.574 2°49.427 12.8 344 2 102130 100
2005-02-18 08:52:52 51°12.565 2°49.403 12.5 340 2 102130 100
2005-02-18 08:52:56 51°12.559 2°49.384 13.1 339 2 102130 100
2005-02-18 08:53:01 51°12.55 2°49.358 12.5 343 2 102130 100
2005-02-18 08:53:05 51°12.543 2°49.339 12.7 348 2 102130 100
2005-02-18 08:53:12 51°12.532 2°49.308 13.3 336 2 102130 100
2005-02-18 08:53:17 51°12.523 2°49.284 12.6 335 2 102130 100
2005-02-18 08:53:21 51°12.516 2°49.263 11.9 340 2 102130 100
2005-02-18 08:53:26 51°12.507 2°49.239 12.9 340 2 102130 100
2005-02-18 08:53:32 51°12.498 2°49.213 12.1 343 2 102130 100
2005-02-18 08:53:37 51°12.489 2°49.189 11.3 347 2 102130 100
2005-02-18 08:53:41 51°12.481 2°49.168 13.5 348 2 102130 100
2005-02-18 08:53:46 51°12.474 2°49.147 13.8 341 2 102130 100
2005-02-18 08:53:52 51°12.464 2°49.118 12.3 341 2 102130 100
2005-02-18 08:53:56 51°12.457 2°49.099 13.1 337 2 102140 100
2005-02-18 08:54:02 51°12.447 2°49.07 12.5 343 2 102140 100
2005-02-18 08:54:06 51°12.439 2°49.049 12.1 341 2 102130 100
2005-02-18 08:54:12 51°12.43 2°49.023 12.7 344 2 102130 100
2005-02-18 08:54:16 51°12.422 2°49.001 11.8 344 2 102130 100
2005-02-18 08:54:21 51°12.414 2°48.977 12.5 341 2 102130 100
2005-02-18 08:54:27 51°12.405 2°48.95 13.5 350 2 102130 100
2005-02-18 08:54:32 51°12.396 2°48.927 13.4 337 2 102130 100
2005-02-18 08:54:36 51°12.389 2°48.908 13.7 337 2 102140 100
2005-02-18 08:54:41 51°12.38 2°48.882 13 339 2 102140 100
2005-02-18 08:54:47 51°12.371 2°48.856 11.6 344 2 102130 100
2005-02-18 08:54:52 51°12.362 2°48.832 13.4 342 2 102130 100
2005-02-18 08:54:56 51°12.355 2°48.813 12.5 344 2 102130 100
2005-02-18 08:55:02 51°12.345 2°48.784 12.2 343 2 102130 100
2005-02-18 08:55:06 51°12.339 2°48.765 12.6 345 2 102130 100
2005-02-18 08:55:12 51°12.328 2°48.736 13.3 343 2 102130 100
2005-02-18 08:55:16 51°12.321 2°48.717 13.5 340 2 102130 100
2005-02-18 08:55:21 51°12.312 2°48.691 12.1 343 2 102130 100
2005-02-18 08:55:25 51°12.305 2°48.672 13 343 2.1 102130 100
2005-02-18 08:55:32 51°12.294 2°48.641 13.2 343 2.1 102130 100
2005-02-18 08:55:37 51°12.285 2°48.618 13.8 340 2.1 102130 100
2005-02-18 08:55:41 51°12.277 2°48.596 12.2 337 2.1 102130 100
2005-02-18 08:55:46 51°12.27 2°48.575 13 338 2 102130 100
2005-02-18 08:55:52 51°12.26 2°48.546 13.7 334 2 102130 100
2005-02-18 08:55:57 51°12.251 2°48.522 13 335 2 102120 100
2005-02-18 08:56:01 51°12.243 2°48.5 13.5 342 2 102120 100
2005-02-18 08:56:07 51°12.234 2°48.474 12.1 336 2 102120 100
2005-02-18 08:56:12 51°12.225 2°48.45 12.9 341 2 102120 100
2005-02-18 08:56:16 51°12.218 2°48.429 12.2 335 2 102120 100
2005-02-18 08:56:21 51°12.209 2°48.405 11.8 337 2 102120 100
2005-02-18 08:56:26 51°12.201 2°48.383 13.9 337 2 102130 100
2005-02-18 08:56:32 51°12.191 2°48.354 14.6 339 2 102130 100
2005-02-18 08:56:36 51°12.183 2°48.333 13.5 341 2.1 102130 100
2005-02-18 08:56:42 51°12.174 2°48.307 13.1 341 2.1 102130 100
2005-02-18 08:56:47 51°12.165 2°48.283 12.6 342 2.1 102130 100
2005-02-18 08:56:52 51°12.156 2°48.259 11.3 336 2.1 102130 100
2005-02-18 08:56:57 51°12.148 2°48.236 11.2 337 2.1 102130 100
2005-02-18 08:57:02 51°12.139 2°48.212 11 339 2.1 102130 100
2005-02-18 08:57:07 51°12.131 2°48.188 12.7 337 2.1 102130 100
2005-02-18 08:57:12 51°12.122 2°48.164 13.1 333 2.1 102130 100
2005-02-18 08:57:16 51°12.115 2°48.145 11.8 337 2.1 102130 100
2005-02-18 08:57:21 51°12.105 2°48.12 13.1 338 2.1 102130 100
2005-02-18 08:57:27 51°12.096 2°48.093 13.3 340 2.1 102130 100
2005-02-18 08:57:32 51°12.087 2°48.07 13.2 337 2.1 102130 100
2005-02-18 08:57:36 51°12.08 2°48.051 13 335 2.1 102120 100
2005-02-18 08:57:41 51°12.071 2°48.025 12.5 336 2.1 102120 100
2005-02-18 08:57:46 51°12.063 2°48.003 13.8 338 2.1 102120 100
2005-02-18 08:57:52 51°12.053 2°47.975 12.1 345 2.1 102120 100
2005-02-18 08:57:57 51°12.045 2°47.951 13.3 340 2.1 102120 100
2005-02-18 08:58:01 51°12.037 2°47.929 13.7 336 2.1 102120 100
2005-02-18 08:58:07 51°12.028 2°47.903 13.5 338 2.1 102120 100
2005-02-18 08:58:12 51°12.019 2°47.879 13.4 338 2.1 102120 100
2005-02-18 08:58:17 51°12.011 2°47.855 12.5 340 2.1 102130 100
2005-02-18 08:58:22 51°12.002 2°47.831 11.4 336 2.1 102130 100
2005-02-18 08:58:25 51°11.996 2°47.814 12 337 2.1 102120 100
2005-02-18 08:58:32 51°11.984 2°47.783 11.4 341 2.1 102120 100
2005-02-18 08:58:36 51°11.977 2°47.764 11.9 341 2.1 102120 100
2005-02-18 08:58:41 51°11.968 2°47.737 12.5 342 2.1 102120 100
2005-02-18 08:58:47 51°11.958 2°47.711 11.4 340 2.1 102130 100
2005-02-18 08:58:51 51°11.95 2°47.689 10.9 339 2.1 102130 100
2005-02-18 08:58:56 51°11.943 2°47.667 11.4 339 2.1 102130 100
2005-02-18 08:59:02 51°11.932 2°47.638 11.8 341 2.1 102130 100
2005-02-18 08:59:07 51°11.923 2°47.614 11.3 340 2.2 102130 100
2005-02-18 08:59:11 51°11.916 2°47.592 12.8 346 2.2 102130 100
2005-02-18 08:59:17 51°11.906 2°47.565 12.2 333 2.2 102130 100
2005-02-18 08:59:22 51°11.898 2°47.541 12.5 340 2.2 102130 100
2005-02-18 08:59:27 51°11.889 2°47.517 13.8 339 2.2 102130 100
2005-02-18 08:59:32 51°11.88 2°47.492 12.7 338 2.2 102130 100
2005-02-18 08:59:37 51°11.871 2°47.468 13.7 339 2.2 102130 100
2005-02-18 08:59:42 51°11.862 2°47.444 12.2 340 2.2 102130 100
2005-02-18 08:59:47 51°11.854 2°47.42 12.5 340 2.2 102120 100
2005-02-18 08:59:52 51°11.845 2°47.396 12.4 346 2.2 102120 100
2005-02-18 08:59:56 51°11.837 2°47.374 13.4 346 2.2 102120 100
2005-02-18 09:00:02 51°11.827 2°47.347 13.5 342 2.2 102120 100
2005-02-18 09:00:07 51°11.818 2°47.323 13.5 342 2.2 102130 100
2005-02-18 09:00:12 51°11.809 2°47.298 14 343 2.2 102130 100
2005-02-18 09:00:17 51°11.801 2°47.274 12.9 341 2.2 102130 100
2005-02-18 09:00:21 51°11.793 2°47.253 13.2 338 2.2 102130 100
2005-02-18 09:00:26 51°11.784 2°47.228 13.7 341 2.2 102120 100
2005-02-18 09:00:32 51°11.774 2°47.202 12 344 2.2 102120 100
2005-02-18 09:00:36 51°11.767 2°47.182 11.9 343 2.2 102130 100
2005-02-18 09:00:42 51°11.756 2°47.153 13 342 2.2 102130 100
2005-02-18 09:00:46 51°11.748 2°47.131 13.3 341 2.2 102120 100
2005-02-18 09:00:51 51°11.739 2°47.108 12.4 341 2.2 102120 100
2005-02-18 09:00:57 51°11.729 2°47.081 12.2 338 2.2 102130 100
2005-02-18 09:01:02 51°11.72 2°47.057 12.4 338 2.2 102130 100
2005-02-18 09:01:07 51°11.712 2°47.033 11.8 342 2.2 102130 100
2005-02-18 09:01:12 51°11.703 2°47.008 14.2 346 2.2 102130 100
2005-02-18 09:01:16 51°11.695 2°46.986 13.7 347 2.2 102130 100
2005-02-18 09:01:22 51°11.686 2°46.96 15.2 340 2.2 102130 100
2005-02-18 09:01:27 51°11.677 2°46.935 13.5 338 2.3 102130 100
2005-02-18 09:01:32 51°11.67 2°46.91 13 336 2.3 102130 100
2005-02-18 09:01:36 51°11.663 2°46.887 13.5 339 2.3 102120 100
2005-02-18 09:01:41 51°11.656 2°46.862 12.6 340 2.3 102120 100
2005-02-18 09:01:47 51°11.648 2°46.833 13.1 337 2.3 102120 100
2005-02-18 09:01:52 51°11.641 2°46.808 13.2 344 2.3 102120 100
2005-02-18 09:01:56 51°11.636 2°46.787 13.4 341 2.3 102120 100
2005-02-18 09:02:02 51°11.628 2°46.756 13.1 335 2.3 102120 100
2005-02-18 09:02:07 51°11.621 2°46.73 14.6 340 2.3 102130 100
2005-02-18 09:02:12 51°11.614 2°46.704 13.9 339 2.3 102130 100
2005-02-18 09:02:17 51°11.608 2°46.678 13.3 338 2.3 102130 100
2005-02-18 09:02:22 51°11.601 2°46.653 12.6 342 2.3 102120 100
2005-02-18 09:02:26 51°11.596 2°46.632 13.4 343 2.2 102120 100
2005-02-18 09:02:32 51°11.588 2°46.601 12.6 342 2.2 102120 100
2005-02-18 09:02:36 51°11.582 2°46.58 13.1 340 2.2 102120 100
2005-02-18 09:02:42 51°11.574 2°46.549 12.8 342 2.2 102120 100
2005-02-18 09:02:46 51°11.568 2°46.526 14 336 2.3 102120 100
2005-02-18 09:02:51 51°11.562 2°46.5 13.4 333 2.3 102120 100
2005-02-18 09:02:57 51°11.555 2°46.471 13.1 332 2.3 102130 100
2005-02-18 09:03:02 51°11.548 2°46.445 12 335 2.3 102130 100
2005-02-18 09:03:07 51°11.541 2°46.419 12 339 2.3 102120 100
2005-02-18 09:03:12 51°11.535 2°46.393 13.4 337 2.3 102120 100
2005-02-18 09:03:16 51°11.529 2°46.37 14 338 2.3 102120 100
2005-02-18 09:03:21 51°11.522 2°46.344 12.6 337 2.3 102120 100
2005-02-18 09:03:27 51°11.514 2°46.316 12.9 337 2.3 102120 100
2005-02-18 09:03:32 51°11.508 2°46.29 13.5 338 2.3 102120 100
2005-02-18 09:03:37 51°11.501 2°46.264 13.5 338 2.3 102120 100
2005-02-18 09:03:41 51°11.495 2°46.241 12.3 335 2.3 102120 100
2005-02-18 09:03:47 51°11.488 2°46.212 11.5 342 2.2 102120 100
2005-02-18 09:03:52 51°11.481 2°46.187 12.6 339 2.2 102120 100
2005-02-18 09:03:56 51°11.475 2°46.163 13 339 2.2 102120 100
2005-02-18 09:04:01 51°11.468 2°46.137 13.5 337 2.2 102120 100
2005-02-18 09:04:07 51°11.461 2°46.109 13.7 336 2.3 102120 100
2005-02-18 09:04:12 51°11.454 2°46.083 12.6 337 2.3 102120 100
2005-02-18 09:04:16 51°11.448 2°46.06 13.2 337 2.3 102130 100
2005-02-18 09:04:22 51°11.441 2°46.031 12.6 342 2.3 102130 100
2005-02-18 09:04:26 51°11.436 2°46.011 12.1 340 2.3 102130 100
2005-02-18 09:04:32 51°11.427 2°45.98 12.8 340 2.3 102130 100
2005-02-18 09:04:36 51°11.422 2°45.959 12.7 340 2.3 102120 100
2005-02-18 09:04:42 51°11.414 2°45.928 13.6 339 2.3 102120 100
2005-02-18 09:04:47 51°11.408 2°45.902 13.2 337 2.3 102130 100
2005-02-18 09:04:51 51°11.402 2°45.878 13.4 338 2.3 102130 100
2005-02-18 09:04:57 51°11.394 2°45.85 12.9 340 2.3 102130 100
2005-02-18 09:05:01 51°11.388 2°45.827 12.3 340 2.3 102130 100
2005-02-18 09:05:06 51°11.382 2°45.804 12.3 336 2.3 102120 100
2005-02-18 09:05:12 51°11.374 2°45.772 13.1 337 2.3 102120 100
2005-02-18 09:05:16 51°11.368 2°45.749 13.4 337 2.3 102130 100
2005-02-18 09:05:21 51°11.361 2°45.723 13.1 345 2.3 102130 100
2005-02-18 09:05:26 51°11.355 2°45.7 12.2 343 2.3 102120 100
2005-02-18 09:05:31 51°11.348 2°45.672 13 339 2.3 102120 100
2005-02-18 09:05:37 51°11.341 2°45.643 12.3 339 2.3 102120 100
2005-02-18 09:05:41 51°11.335 2°45.62 12 340 2.3 102120 100
2005-02-18 09:05:47 51°11.328 2°45.592 12.7 340 2.3 102130 100
2005-02-18 09:05:52 51°11.321 2°45.566 12.6 335 2.3 102130 100
2005-02-18 09:05:57 51°11.315 2°45.54 11.9 335 2.3 102130 100
2005-02-18 09:06:01 51°11.309 2°45.517 13.1 337 2.3 102120 100
2005-02-18 09:06:06 51°11.303 2°45.494 12.1 338 2.3 102130 100
2005-02-18 09:06:12 51°11.295 2°45.463 13 337 2.3 102130 100
2005-02-18 09:06:17 51°11.288 2°45.437 13.3 337 2.3 102130 100
2005-02-18 09:06:21 51°11.282 2°45.414 13.1 -999 2.3 102130 100
2005-02-18 09:06:27 51°11.274 2°45.384 12.4 338 2.3 102130 100
2005-02-18 09:06:32 51°11.268 2°45.361 12.5 339 2.3 102130 100
2005-02-18 09:06:36 51°11.262 2°45.338 12.9 343 2.3 102120 100
2005-02-18 09:06:41 51°11.255 2°45.312 13.1 344 2.3 102120 100
2005-02-18 09:06:46 51°11.249 2°45.289 13.9 341 2.3 102120 100
2005-02-18 09:06:52 51°11.241 2°45.259 12.7 343 2.3 102120 100
2005-02-18 09:06:56 51°11.236 2°45.238 12.5 339 2.3 102130 100
2005-02-18 09:07:02 51°11.228 2°45.208 11.8 335 2.3 102130 100
2005-02-18 09:07:07 51°11.221 2°45.182 12.6 334 2.3 102120 100
2005-02-18 09:07:12 51°11.215 2°45.156 12.4 333 2.3 102120 100
2005-02-18 09:07:16 51°11.21 2°45.136 11.3 334 2.3 102120 100
2005-02-18 09:07:21 51°11.203 2°45.107 11.8 334 2.3 102120 100
2005-02-18 09:07:27 51°11.196 2°45.078 11.7 337 2.3 102120 100
2005-02-18 09:07:31 51°11.191 2°45.054 11.6 335 2.3 102120 100
2005-02-18 09:07:36 51°11.186 2°45.028 12.2 336 2.3 102120 100
2005-02-18 09:07:42 51°11.18 2°44.999 12.5 332 2.3 102120 100
2005-02-18 09:07:46 51°11.175 2°44.978 12.8 334 2.3 102130 100
2005-02-18 09:07:52 51°11.169 2°44.946 11.9 334 2.3 102130 100
2005-02-18 09:07:57 51°11.163 2°44.92 12.1 334 2.3 102130 100
2005-02-18 09:08:02 51°11.158 2°44.894 12.2 333 2.3 102130 100
2005-02-18 09:08:07 51°11.152 2°44.868 12.6 333 2.3 102130 100
2005-02-18 09:08:11 51°11.147 2°44.844 11.9 335 2.3 102130 100
2005-02-18 09:08:17 51°11.141 2°44.816 11.6 339 2.3 102130 100
2005-02-18 09:08:22 51°11.135 2°44.79 11.6 338 2.3 102130 100
2005-02-18 09:08:25 51°11.13 2°44.772 12.1 336 2.3 102130 100
2005-02-18 09:08:32 51°11.123 2°44.738 11.2 336 2.3 102130 100
2005-02-18 09:08:36 51°11.118 2°44.717 12 334 2.3 102120 100
2005-02-18 09:08:42 51°11.112 2°44.685 12 333 2.3 102120 100
2005-02-18 09:08:46 51°11.107 2°44.664 11.9 334 2.3 102120 100
2005-02-18 09:08:52 51°11.1 2°44.633 12 333 2.3 102120 100
2005-02-18 09:08:56 51°11.095 2°44.61 11.9 332 2.3 102120 100
2005-02-18 09:09:02 51°11.088 2°44.581 11.6 332 2.3 102120 100
2005-02-18 09:09:07 51°11.083 2°44.555 11.5 332 2.3 102120 100
2005-02-18 09:09:12 51°11.077 2°44.529 11.9 334 2.3 102130 100
2005-02-18 09:09:17 51°11.071 2°44.503 10.9 334 2.3 102120 100
2005-02-18 09:09:22 51°11.065 2°44.477 12 335 2.3 102120 100
2005-02-18 09:09:26 51°11.061 2°44.456 11.7 332 2.3 102130 100
2005-02-18 09:09:32 51°11.054 2°44.424 12.5 334 2.3 102130 100
2005-02-18 09:09:36 51°11.048 2°44.401 11.6 334 2.4 102130 100
2005-02-18 09:09:41 51°11.042 2°44.375 11.9 341 2.4 102130 100
2005-02-18 09:09:46 51°11.037 2°44.351 12.3 338 2.3 102130 100
2005-02-18 09:09:52 51°11.03 2°44.32 12.7 340 2.3 102130 100
2005-02-18 09:09:56 51°11.025 2°44.296 12.9 340 2.3 102130 100
2005-02-18 09:10:01 51°11.019 2°44.27 12.1 339 2.3 102130 100
2005-02-18 09:10:06 51°11.014 2°44.246 12.4 332 2.4 102130 100
2005-02-18 09:10:12 51°11.007 2°44.214 12.4 333 2.4 102130 100
2005-02-18 09:10:16 51°11.002 2°44.191 12.9 338 2.3 102120 100
2005-02-18 09:10:22 51°10.995 2°44.162 12.2 338 2.3 102120 100
2005-02-18 09:10:27 51°10.99 2°44.136 13.5 339 2.3 102120 100
2005-02-18 09:10:31 51°10.984 2°44.112 12.7 338 2.3 102120 100
2005-02-18 09:10:36 51°10.978 2°44.086 12.5 337 2.4 102120 100
2005-02-18 09:10:42 51°10.972 2°44.057 11.8 336 2.4 102120 100
2005-02-18 09:10:47 51°10.966 2°44.031 12.1 338 2.3 102120 100
2005-02-18 09:10:52 51°10.96 2°44.005 11.5 336 2.3 102120 100
2005-02-18 09:10:56 51°10.955 2°43.984 11.4 340 2.3 102120 100
2005-02-18 09:11:02 51°10.948 2°43.952 12.4 338 2.3 102120 100
2005-02-18 09:11:06 51°10.942 2°43.929 13 335 2.3 102120 100
2005-02-18 09:11:12 51°10.936 2°43.9 11.7 338 2.3 102120 100
2005-02-18 09:11:17 51°10.93 2°43.873 12.6 334 2.3 102120 100
2005-02-18 09:11:22 51°10.924 2°43.847 10.8 336 2.4 102120 100
2005-02-18 09:11:26 51°10.919 2°43.824 12.7 337 2.4 102120 100
2005-02-18 09:11:32 51°10.913 2°43.794 12.8 340 2.4 102120 100
2005-02-18 09:11:37 51°10.907 2°43.768 12.8 341 2.4 102120 100
2005-02-18 09:11:41 51°10.902 2°43.744 11.8 343 2.4 102120 100
2005-02-18 09:11:46 51°10.897 2°43.718 11.6 343 2.4 102120 100
2005-02-18 09:11:52 51°10.891 2°43.689 12.4 343 2.4 102120 100
2005-02-18 09:11:57 51°10.885 2°43.663 12.4 341 2.4 102120 100
2005-02-18 09:12:02 51°10.879 2°43.636 12.2 340 2.4 102120 100
2005-02-18 09:12:06 51°10.874 2°43.613 12.1 339 2.5 102120 100
2005-02-18 09:12:12 51°10.868 2°43.584 12.2 338 2.5 102120 100
2005-02-18 09:12:16 51°10.863 2°43.563 12.6 342 2.4 102120 100
2005-02-18 09:12:22 51°10.856 2°43.531 12.3 345 2.4 102120 100
2005-02-18 09:12:26 51°10.851 2°43.508 13 337 2.4 102120 100
2005-02-18 09:12:31 51°10.845 2°43.482 11.6 338 2.4 102120 100
2005-02-18 09:12:36 51°10.839 2°43.455 12.6 334 2.4 102120 100
2005-02-18 09:12:42 51°10.833 2°43.427 12.5 339 2.4 102120 100
2005-02-18 09:12:47 51°10.826 2°43.401 13.1 340 2.5 102120 100
2005-02-18 09:12:52 51°10.82 2°43.374 12.6 337 2.5 102120 100
2005-02-18 09:12:56 51°10.815 2°43.351 12.5 335 2.5 102110 100
2005-02-18 09:13:01 51°10.809 2°43.325 12.4 338 2.5 102110 100
2005-02-18 09:13:07 51°10.802 2°43.296 12.7 335 2.5 102110 100
2005-02-18 09:13:12 51°10.797 2°43.269 11.6 337 2.5 102110 100
2005-02-18 09:13:16 51°10.791 2°43.246 12 335 2.5 102110 100
2005-02-18 09:13:22 51°10.785 2°43.217 12.4 338 2.5 102110 100
2005-02-18 09:13:26 51°10.78 2°43.196 11.9 338 2.4 102110 100
2005-02-18 09:13:32 51°10.773 2°43.164 12.6 336 2.4 102110 100
2005-02-18 09:13:36 51°10.769 2°43.143 12.6 336 2.4 102110 100
2005-02-18 09:13:42 51°10.762 2°43.111 11.9 337 2.4 102110 100
2005-02-18 09:13:46 51°10.757 2°43.09 11.8 333 2.4 102110 100
2005-02-18 09:13:51 51°10.75 2°43.061 12 335 2.4 102110 100
2005-02-18 09:13:57 51°10.744 2°43.032 12.3 334 2.5 102110 100
2005-02-18 09:14:02 51°10.738 2°43.006 11.5 338 2.5 102110 100
2005-02-18 09:14:07 51°10.732 2°42.98 11.8 338 2.5 102110 100
2005-02-18 09:14:11 51°10.726 2°42.956 12.4 338 2.5 102110 100
2005-02-18 09:14:17 51°10.719 2°42.927 12.4 339 2.5 102110 100
2005-02-18 09:14:21 51°10.714 2°42.904 12.8 339 2.5 102110 100
2005-02-18 09:14:27 51°10.707 2°42.872 12.1 337 2.5 102110 100
2005-02-18 09:14:32 51°10.701 2°42.849 12.5 336 2.5 102110 100
2005-02-18 09:14:37 51°10.695 2°42.822 11.9 337 2.5 102110 100
2005-02-18 09:14:41 51°10.69 2°42.799 12.2 335 2.5 102110 100
2005-02-18 09:14:47 51°10.683 2°42.77 13.3 336 2.5 102110 100
2005-02-18 09:14:52 51°10.677 2°42.744 12.7 334 2.5 102110 100
2005-02-18 09:14:57 51°10.671 2°42.717 13.3 333 2.5 102110 100
2005-02-18 09:15:01 51°10.666 2°42.693 11.7 339 2.5 102110 100
2005-02-18 09:15:06 51°10.66 2°42.667 12.1 336 2.5 102110 100
2005-02-18 09:15:12 51°10.653 2°42.638 13.2 333 2.5 102110 100
2005-02-18 09:15:16 51°10.649 2°42.617 12.7 334 2.5 102110 100
2005-02-18 09:15:21 51°10.643 2°42.591 13 336 2.5 102110 100
2005-02-18 09:15:26 51°10.637 2°42.564 13.7 334 2.5 102110 100
2005-02-18 09:15:32 51°10.63 2°42.533 13.2 335 2.5 102110 100
2005-02-18 09:15:37 51°10.624 2°42.506 13.1 334 2.5 102110 100
2005-02-18 09:15:41 51°10.618 2°42.483 12.2 342 2.5 102110 100
2005-02-18 09:15:46 51°10.612 2°42.456 13.5 339 2.5 102110 100
2005-02-18 09:15:52 51°10.606 2°42.428 11.8 337 2.5 102110 100
2005-02-18 09:15:56 51°10.6 2°42.404 12.4 333 2.5 102110 100
2005-02-18 09:16:02 51°10.594 2°42.375 12.5 337 2.5 102110 100
2005-02-18 09:16:06 51°10.589 2°42.353 11.6 338 2.5 102110 100
2005-02-18 09:16:12 51°10.582 2°42.321 11.9 337 2.5 102110 100
2005-02-18 09:16:17 51°10.576 2°42.295 12.2 340 2.5 102110 100
2005-02-18 09:16:22 51°10.57 2°42.269 13.3 339 2.5 102110 100
2005-02-18 09:16:27 51°10.564 2°42.242 12.3 337 2.5 102110 100
2005-02-18 09:16:32 51°10.558 2°42.216 11.7 336 2.5 102100 99
2005-02-18 09:16:36 51°10.553 2°42.192 12.5 339 2.6 102110 99
2005-02-18 09:16:42 51°10.546 2°42.162 11.7 339 2.6 102110 99
2005-02-18 09:16:47 51°10.54 2°42.136 12.5 336 2.6 102110 99
2005-02-18 09:16:52 51°10.535 2°42.109 12.7 336 2.6 102110 99
2005-02-18 09:16:57 51°10.529 2°42.082 12.1 334 2.6 102110 99
2005-02-18 09:17:01 51°10.523 2°42.058 12.3 337 2.6 102110 99
2005-02-18 09:17:07 51°10.517 2°42.029 12 335 2.6 102110 100
2005-02-18 09:17:12 51°10.511 2°42.002 12.1 339 2.6 102110 100
2005-02-18 09:17:16 51°10.505 2°41.978 13.2 337 2.6 102100 99
2005-02-18 09:17:22 51°10.499 2°41.949 12.2 341 2.6 102100 99
2005-02-18 09:17:27 51°10.493 2°41.922 12.6 339 2.6 102110 99
2005-02-18 09:17:32 51°10.487 2°41.896 12.2 332 2.6 102110 99
2005-02-18 09:17:36 51°10.482 2°41.872 12.3 338 2.6 102110 99
2005-02-18 09:17:41 51°10.476 2°41.845 11.1 337 2.6 102110 99
2005-02-18 09:17:45 51°10.471 2°41.824 13 337 2.6 102100 99
2005-02-18 09:17:52 51°10.462 2°41.79 12.7 339 2.6 102100 99
2005-02-18 09:17:56 51°10.457 2°41.769 12.8 341 2.6 102100 99
2005-02-18 09:18:01 51°10.449 2°41.741 13.3 341 2.6 102100 99
2005-02-18 09:18:07 51°10.44 2°41.713 12.5 339 2.7 102110 99
2005-02-18 09:18:12 51°10.433 2°41.687 13.6 342 2.7 102110 99
2005-02-18 09:18:16 51°10.427 2°41.664 13.6 341 2.6 102110 99
2005-02-18 09:18:22 51°10.418 2°41.636 13.3 340 2.6 102110 99
2005-02-18 09:18:27 51°10.411 2°41.61 12.4 342 2.6 102110 99
2005-02-18 09:18:32 51°10.403 2°41.585 12.6 342 2.7 102110 99
2005-02-18 09:18:37 51°10.396 2°41.56 13 338 2.6 102110 99
2005-02-18 09:18:41 51°10.389 2°41.537 13.1 338 2.6 102110 99
2005-02-18 09:18:46 51°10.382 2°41.511 11.6 343 2.7 102100 99
2005-02-18 09:18:52 51°10.374 2°41.482 11.8 341 2.7 102100 99
2005-02-18 09:18:57 51°10.366 2°41.457 11.8 343 2.7 102110 99
2005-02-18 09:19:01 51°10.359 2°41.434 11.3 340 2.7 102110 99
2005-02-18 09:19:06 51°10.352 2°41.408 12.6 340 2.7 102110 99
2005-02-18 09:19:12 51°10.344 2°41.38 13.3 346 2.7 102110 99
2005-02-18 09:19:17 51°10.336 2°41.354 13 343 2.7 102110 99
2005-02-18 09:19:22 51°10.329 2°41.328 12.6 342 2.7 102110 99
2005-02-18 09:19:27 51°10.321 2°41.303 12.4 339 2.7 102110 99
2005-02-18 09:19:32 51°10.314 2°41.277 13.4 341 2.7 102110 99
2005-02-18 09:19:36 51°10.307 2°41.254 12.5 340 2.7 102110 99
2005-02-18 09:19:41 51°10.299 2°41.229 14.3 340 2.7 102110 99
2005-02-18 09:19:47 51°10.291 2°41.2 13.6 340 2.7 102110 99
2005-02-18 09:19:52 51°10.284 2°41.175 13.8 341 2.7 102110 99
2005-02-18 09:19:57 51°10.276 2°41.149 14.4 339 2.7 102110 99
2005-02-18 09:20:02 51°10.269 2°41.124 13.1 341 2.7 102100 99
2005-02-18 09:20:07 51°10.26 2°41.096 12.8 340 2.7 102100 99
2005-02-18 09:20:12 51°10.254 2°41.073 12.5 340 2.7 102100 99
2005-02-18 09:20:16 51°10.247 2°41.05 13.4 344 2.7 102100 99
2005-02-18 09:20:22 51°10.238 2°41.022 13 345 2.7 102100 99
2005-02-18 09:20:27 51°10.231 2°40.996 13.3 341 2.7 102100 98
2005-02-18 09:20:32 51°10.224 2°40.97 13.4 341 2.7 102100 98
2005-02-18 09:20:36 51°10.217 2°40.947 13.7 341 2.8 102110 98
2005-02-18 09:20:41 51°10.209 2°40.922 13.6 344 2.8 102110 98
2005-02-18 09:20:46 51°10.203 2°40.898 12.4 343 2.8 102110 99
2005-02-18 09:20:52 51°10.194 2°40.868 13 342 2.8 102110 99
2005-02-18 09:20:57 51°10.186 2°40.842 12.8 342 2.8 102100 98
2005-02-18 09:21:02 51°10.179 2°40.816 13 345 2.8 102100 98
2005-02-18 09:21:07 51°10.171 2°40.791 13.5 341 2.8 102110 98
2005-02-18 09:21:12 51°10.164 2°40.765 12.4 338 2.8 102110 98
2005-02-18 09:21:17 51°10.156 2°40.739 11.9 339 2.8 102110 98
2005-02-18 09:21:22 51°10.149 2°40.713 12.2 343 2.8 102110 98
2005-02-18 09:21:27 51°10.141 2°40.688 12.6 340 2.8 102110 98
2005-02-18 09:21:32 51°10.134 2°40.662 13.3 345 2.8 102110 98
2005-02-18 09:21:37 51°10.126 2°40.637 12.5 342 2.8 102100 98
2005-02-18 09:21:42 51°10.119 2°40.611 13 336 2.8 102100 98
2005-02-18 09:21:46 51°10.113 2°40.59 13.5 341 2.8 102110 98
2005-02-18 09:21:51 51°10.104 2°40.562 12.1 341 2.8 102110 98
2005-02-18 09:21:56 51°10.097 2°40.536 13.1 338 2.8 102110 98
2005-02-18 09:22:02 51°10.089 2°40.508 12.9 340 2.8 102110 98
2005-02-18 09:22:06 51°10.083 2°40.487 13.1 340 2.8 102100 98
2005-02-18 09:22:12 51°10.074 2°40.457 12.8 338 2.8 102100 98
2005-02-18 09:22:16 51°10.067 2°40.433 12.2 338 2.8 102100 98
2005-02-18 09:22:22 51°10.059 2°40.405 12.1 341 2.8 102100 98
2005-02-18 09:22:27 51°10.051 2°40.376 12.9 339 2.8 102100 98
2005-02-18 09:22:32 51°10.044 2°40.353 12 340 2.8 102100 98
2005-02-18 09:22:37 51°10.036 2°40.327 13.1 344 2.8 102100 98
2005-02-18 09:22:41 51°10.029 2°40.304 13.3 338 2.8 102100 98
2005-02-18 09:22:47 51°10.021 2°40.275 11.8 344 2.8 102100 98
2005-02-18 09:22:52 51°10.013 2°40.25 12.3 344 2.8 102100 98
2005-02-18 09:22:56 51°10.007 2°40.226 13 341 2.8 102110 98
2005-02-18 09:23:02 51°9.998 2°40.198 13.1 342 2.8 102110 98
2005-02-18 09:23:06 51°9.992 2°40.177 12.5 337 2.8 102110 98
2005-02-18 09:23:12 51°9.984 2°40.145 11 338 2.9 102100 98
2005-02-18 09:23:17 51°9.98 2°40.117 11.2 333 2.8 102110 98
2005-02-18 09:23:21 51°9.976 2°40.092 12.7 334 2.8 102110 98
2005-02-18 09:23:27 51°9.973 2°40.062 12.2 333 2.8 102110 98
2005-02-18 09:23:32 51°9.971 2°40.033 12.8 329 2.9 102100 98
2005-02-18 09:23:37 51°9.969 2°40.005 12.7 327 2.9 102100 98
2005-02-18 09:23:41 51°9.967 2°39.979 11.2 327 2.9 102100 98
2005-02-18 09:23:45 51°9.966 2°39.956 12.3 331 2.9 102100 98
2005-02-18 09:23:52 51°9.964 2°39.919 11.7 331 2.9 102100 98
2005-02-18 09:23:57 51°9.962 2°39.891 12.7 328 2.9 102100 98
2005-02-18 09:24:01 51°9.961 2°39.865 12.2 332 2.9 102100 98
2005-02-18 09:24:06 51°9.959 2°39.836 12 334 2.9 102100 98
2005-02-18 09:24:12 51°9.957 2°39.805 13 332 2.9 102100 98
2005-02-18 09:24:16 51°9.956 2°39.779 11.8 328 2.9 102100 98
2005-02-18 09:24:22 51°9.954 2°39.748 11.9 328 2.9 102100 98
2005-02-18 09:24:27 51°9.952 2°39.719 12.4 334 2.9 102110 98
2005-02-18 09:24:32 51°9.951 2°39.69 11.8 334 2.9 102110 98
2005-02-18 09:24:36 51°9.949 2°39.668 11.1 332 2.9 102100 98
2005-02-18 09:24:42 51°9.947 2°39.633 11.7 338 2.9 102100 98
2005-02-18 09:24:46 51°9.946 2°39.611 12.1 337 2.9 102100 98
2005-02-18 09:24:52 51°9.944 2°39.576 12.3 335 2.9 102100 98
2005-02-18 09:24:56 51°9.943 2°39.551 12.1 338 2.9 102100 98
2005-02-18 09:25:02 51°9.94 2°39.52 12.7 333 2.9 102100 98
2005-02-18 09:25:07 51°9.939 2°39.491 12.4 334 2.9 102110 98
2005-02-18 09:25:12 51°9.937 2°39.463 12.3 334 2.9 102110 98
2005-02-18 09:25:16 51°9.936 2°39.437 12.5 333 2.9 102100 98
2005-02-18 09:25:22 51°9.934 2°39.406 12.7 330 2.9 102100 98
2005-02-18 09:25:27 51°9.932 2°39.378 12.9 330 2.9 102100 98
2005-02-18 09:25:31 51°9.931 2°39.352 12.9 332 2.9 102100 98
2005-02-18 09:25:37 51°9.929 2°39.321 12.5 328 2.9 102100 98
2005-02-18 09:25:42 51°9.927 2°39.293 11.6 331 2.9 102100 98
2005-02-18 09:25:47 51°9.926 2°39.264 11.9 335 2.9 102100 98
2005-02-18 09:25:52 51°9.924 2°39.236 12.5 337 2.9 102100 98
2005-02-18 09:25:56 51°9.922 2°39.211 13.8 334 2.9 102100 98
2005-02-18 09:26:02 51°9.92 2°39.18 13.2 331 2.9 102100 98
2005-02-18 09:26:06 51°9.919 2°39.154 12.8 330 2.9 102100 98
2005-02-18 09:26:12 51°9.917 2°39.123 11.4 330 2.9 102100 98
2005-02-18 09:26:16 51°9.916 2°39.097 11.9 331 2.9 102100 98
2005-02-18 09:26:22 51°9.914 2°39.066 12.8 330 2.9 102100 98
2005-02-18 09:26:26 51°9.912 2°39.044 11.8 334 2.9 102100 98
2005-02-18 09:26:32 51°9.91 2°39.01 11.6 332 2.9 102100 98
2005-02-18 09:26:37 51°9.909 2°38.982 11.8 332 2.9 102100 98
2005-02-18 09:26:41 51°9.907 2°38.957 11.9 337 2.9 102100 98
2005-02-18 09:26:47 51°9.905 2°38.923 13.2 330 2.9 102100 98
2005-02-18 09:26:52 51°9.903 2°38.898 12.3 334 2.9 102100 98
2005-02-18 09:26:57 51°9.901 2°38.869 12.9 335 2.9 102100 98
2005-02-18 09:27:02 51°9.9 2°38.841 12.1 334 2.9 102100 98
2005-02-18 09:27:05 51°9.898 2°38.822 11.5 336 2.9 102100 98
2005-02-18 09:27:12 51°9.896 2°38.785 12.5 338 2.9 102100 98
2005-02-18 09:27:17 51°9.894 2°38.757 12.4 337 2.9 102100 98
2005-02-18 09:27:22 51°9.893 2°38.729 12.6 332 2.9 102100 98
2005-02-18 09:27:26 51°9.892 2°38.706 13.2 335 2.9 102100 98
2005-02-18 09:27:32 51°9.89 2°38.673 13.4 335 2.9 102100 98
2005-02-18 09:27:37 51°9.888 2°38.645 13.3 337 2.9 102100 98
2005-02-18 09:27:42 51°9.886 2°38.617 13.7 333 2.9 102100 98
2005-02-18 09:27:47 51°9.884 2°38.589 12.9 332 2.9 102100 98
2005-02-18 09:27:52 51°9.882 2°38.561 13.5 330 2.9 102100 98
2005-02-18 09:27:57 51°9.88 2°38.533 12.7 330 3 102130 98
2005-02-18 09:28:02 51°9.878 2°38.505 12.1 332 3 102130 98
2005-02-18 09:28:06 51°9.877 2°38.483 12.4 334 2.9 102120 98
2005-02-18 09:28:12 51°9.874 2°38.449 12.4 336 2.9 102120 98
2005-02-18 09:28:16 51°9.873 2°38.424 13 335 2.9 102130 97
2005-02-18 09:28:22 51°9.87 2°38.393 12.1 333 2.9 102130 97
2005-02-18 09:28:26 51°9.869 2°38.368 12.1 332 2.9 102130 97
2005-02-18 09:28:31 51°9.867 2°38.34 12.1 332 2.9 102130 97
2005-02-18 09:28:36 51°9.865 2°38.312 12.9 330 2.9 102130 97
2005-02-18 09:28:42 51°9.863 2°38.281 12.5 332 2.9 102130 97
2005-02-18 09:28:47 51°9.861 2°38.253 12.4 333 2.9 102130 97
2005-02-18 09:28:52 51°9.859 2°38.225 11.7 333 2.9 102130 97
2005-02-18 09:28:56 51°9.858 2°38.202 12.5 329 2.9 102130 97
2005-02-18 09:29:02 51°9.856 2°38.169 12.3 328 2.9 102130 97
2005-02-18 09:29:07 51°9.854 2°38.138 12.4 336 2.9 102130 97
2005-02-18 09:29:12 51°9.852 2°38.113 13 335 2.9 102130 97
2005-02-18 09:29:16 51°9.851 2°38.088 12.6 337 2.9 102090 97
2005-02-18 09:29:22 51°9.849 2°38.057 11.1 335 2.9 102090 97
2005-02-18 09:29:27 51°9.847 2°38.028 12.5 335 3 102100 98
2005-02-18 09:29:32 51°9.845 2°38 12.3 334 3 102100 98
2005-02-18 09:29:36 51°9.843 2°37.978 12 334 3 102100 98
2005-02-18 09:29:41 51°9.841 2°37.947 13.4 334 3 102100 98
2005-02-18 09:29:46 51°9.839 2°37.919 13.3 336 3 102100 98
2005-02-18 09:29:52 51°9.837 2°37.888 14.4 333 3 102100 98
2005-02-18 09:29:57 51°9.835 2°37.86 12.7 335 3 102100 98
2005-02-18 09:30:02 51°9.833 2°37.832 13.4 334 3 102100 98
2005-02-18 09:30:06 51°9.831 2°37.804 12.9 337 3 102090 97
2005-02-18 09:30:11 51°9.829 2°37.776 12.2 334 3 102090 97
2005-02-18 09:30:16 51°9.827 2°37.753 12.8 333 3 102100 97
2005-02-18 09:30:21 51°9.825 2°37.719 12.3 336 3 102100 97
2005-02-18 09:30:26 51°9.823 2°37.694 12.8 333 3 102090 97
2005-02-18 09:30:31 51°9.821 2°37.666 13.6 331 3 102090 97
2005-02-18 09:30:36 51°9.819 2°37.638 12.2 335 3 102090 97
2005-02-18 09:30:41 51°9.817 2°37.607 13.1 333 3 102090 97
2005-02-18 09:30:46 51°9.815 2°37.579 13.2 336 3 102100 97
2005-02-18 09:30:51 51°9.813 2°37.551 12.5 337 3 102100 97
2005-02-18 09:30:56 51°9.811 2°37.525 12.4 337 3 102090 97
2005-02-18 09:31:01 51°9.809 2°37.494 12.7 335 3 102090 97
2005-02-18 09:31:06 51°9.807 2°37.469 13.2 334 3 102090 97
2005-02-18 09:31:11 51°9.805 2°37.438 13.1 333 3 102090 97
2005-02-18 09:31:16 51°9.803 2°37.413 14 332 3 102090 98
2005-02-18 09:31:21 51°9.801 2°37.385 12.2 333 3 102090 98
2005-02-18 09:31:27 51°9.799 2°37.354 11.3 332 3 102090 98
2005-02-18 09:31:31 51°9.798 2°37.326 13.6 330 3 102090 98
2005-02-18 09:31:36 51°9.796 2°37.3 13.3 331 3 102090 97
2005-02-18 09:31:42 51°9.794 2°37.269 13.4 334 3 102090 97
2005-02-18 09:31:45 51°9.792 2°37.249 13.1 334 3 102090 97
2005-02-18 09:31:51 51°9.789 2°37.213 13.6 335 3 102090 97
2005-02-18 09:31:55 51°9.788 2°37.19 12.9 333 3 102090 97
2005-02-18 09:32:01 51°9.785 2°37.157 13.5 332 3 102090 97
2005-02-18 09:32:06 51°9.784 2°37.134 11.9 332 3 102090 97
2005-02-18 09:32:11 51°9.783 2°37.1 12.6 340 3 102090 97
2005-02-18 09:32:16 51°9.783 2°37.072 12.7 331 3 102090 97
2005-02-18 09:32:21 51°9.785 2°37.044 13.1 326 3 102090 97
2005-02-18 09:32:25 51°9.787 2°37.021 13.2 326 3 102090 97
2005-02-18 09:32:31 51°9.791 2°36.988 12.3 325 3 102090 97
2005-02-18 09:32:36 51°9.794 2°36.963 11.8 329 3 102090 97
2005-02-18 09:32:41 51°9.798 2°36.935 11.9 326 3 102090 97
2005-02-18 09:32:45 51°9.801 2°36.913 12.1 325 3 102090 97
2005-02-18 09:32:51 51°9.806 2°36.88 12.9 325 3 102090 97
2005-02-18 09:32:55 51°9.81 2°36.855 12.1 323 3 102090 97
2005-02-18 09:33:01 51°9.814 2°36.824 12.1 321 3 102090 97
2005-02-18 09:33:05 51°9.818 2°36.799 11.6 323 3 102090 97
2005-02-18 09:33:11 51°9.823 2°36.766 12.1 325 3 102090 97
2005-02-18 09:33:16 51°9.828 2°36.738 12.1 325 3 102090 97
2005-02-18 09:33:21 51°9.832 2°36.71 10.3 323 3 102090 97
2005-02-18 09:33:26 51°9.836 2°36.682 11.3 327 3 102090 97
2005-02-18 09:33:31 51°9.84 2°36.654 11.7 320 3 102090 97
2005-02-18 09:33:36 51°9.844 2°36.629 12.3 325 3 102100 97
2005-02-18 09:33:41 51°9.849 2°36.599 11.7 323 3 102100 97
2005-02-18 09:33:46 51°9.855 2°36.572 11.9 320 3 102090 97
2005-02-18 09:33:51 51°9.861 2°36.544 12.2 320 3 102090 97
2005-02-18 09:33:56 51°9.866 2°36.52 10.7 317 3 102090 97
2005-02-18 09:34:01 51°9.872 2°36.493 12.2 321 3 102090 97
2005-02-18 09:34:06 51°9.878 2°36.465 11.3 322 3 102090 97
2005-02-18 09:34:12 51°9.885 2°36.433 11.7 323 3 102090 97
2005-02-18 09:34:16 51°9.89 2°36.411 12.3 324 3 102090 97
2005-02-18 09:34:21 51°9.896 2°36.384 12.6 322 3 102090 97
2005-02-18 09:34:25 51°9.901 2°36.359 12.1 324 3 102090 97
2005-02-18 09:34:31 51°9.908 2°36.326 12 321 3 102090 97
2005-02-18 09:34:36 51°9.914 2°36.299 11.6 319 3 102100 98
2005-02-18 09:34:41 51°9.92 2°36.272 11.8 320 3 102100 98
2005-02-18 09:34:45 51°9.924 2°36.253 11.3 319 3 102090 97
2005-02-18 09:34:51 51°9.932 2°36.218 12.1 319 3 102090 97
2005-02-18 09:34:55 51°9.937 2°36.196 11 324 3 102090 97
2005-02-18 09:35:01 51°9.944 2°36.163 11.9 318 3 102090 97
2005-02-18 09:35:05 51°9.949 2°36.141 11.5 319 3 102090 97
2005-02-18 09:35:11 51°9.956 2°36.108 11 318 3 102090 97
2005-02-18 09:35:17 51°9.962 2°36.078 10.8 324 3 102090 97
2005-02-18 09:35:21 51°9.968 2°36.054 11.6 325 3 102090 97
2005-02-18 09:35:25 51°9.973 2°36.032 11.9 325 3 102090 97
2005-02-18 09:35:31 51°9.982 2°36.001 10.9 320 3 102090 97
2005-02-18 09:35:36 51°9.99 2°35.978 11.1 318 3.1 102090 97